KPIH/PIH METAR and TAF weather

Enter ICAO airport designator
Station Type Date Time Source
KPIH METAR 2020/07/12 18:53 UTC NOAA

KPIH 121853Z 25018G26KT 10SM CLR 29/09 A3008 RMK AO2 PK WND 27027/1816 SLP134 T02890089


Station Type Date Time Source
KPIH Decoded METAR 2020/07/12 18:53 UTC NOAA

POCATELLO REGIONAL AIRPORT, ID, United States (KPIH) 42-55N 112-36W 1359M
Jul 12, 2020 - 02:53 PM EDT / 2020.07.12 1853 UTC
Wind: from the WSW (250 degrees) at 21 MPH (18 KT) gusting to 30 MPH (26 KT):0
Visibility: 10 mile(s):0
Sky conditions: clear
Temperature: 84.0 F (28.9 C)
Dew Point: 48.0 F (8.9 C)
Relative Humidity: 28%
Pressure (altimeter): 30.08 in. Hg (1018 hPa)
ob: KPIH 121853Z 25018G26KT 10SM CLR 29/09 A3008 RMK AO2 PK WND 27027/1816 SLP134 T02890089
cycle: 19

Station Type Date Time Source
KPIH TAF 2020/07/12 18:22 UTC NOAA

TAF KPIH 121720Z 1218/1318 25015G25KT P6SM SKC
FM122200 28020G30KT P6SM SKC
FM130200 24010KT P6SM SKC
FM131200 18006KT P6SM FEW060 SCT120 SCT180
FM131500 24010KT P6SM FEW060 SCT120 BKN180

Example: see airport list